Aérodrome :
LOGIN :

S'inscrire | Disclaimer

   EN    FR    IT 

 










Légende :    VFR   VFR Marginal   IFR   IFR Intensif   IFR Très Intensif
Visi : 
Plafond : 
>= 8 km
>= 3000ft
5 à 8 km
1000 à 3000 ft
1500m à 5 km
500 à 1000 ft
800 à 1500m
200 à 500 ft
< 800m
< 200 ft
Symboles :   Orages  Brouillard  Fortes neiges  Fortes précipitations  Vent > 20 kt
SIGMETs :   Divers  Orages  Givrage  Turbulence  Onde Orograph.  Cendres Volcan.







- Altitude de l'aérodrome : 458 ft
- Voir les cartes d'approche


LFSI - St-Dizier

DERNIER METAR :
  • 172300Z AUTO 24004KT 9999 SCT028 00/M01 Q1018

METARs EXPIRÉS :
  • 172230Z AUTO 23003KT 9999 FEW029 M00/M01 Q1017
  • 172200Z AUTO 23003KT CAVOK 00/M01 Q1017
  • 172130Z AUTO 23004KT CAVOK 00/M01 Q1017
  • 172100Z AUTO 26003KT CAVOK 00/M02 Q1016
  • 172030Z AUTO 26004KT 9999 FEW033 00/M01 Q1016

TAF TAF LFSI
Valide du 17 à 21h jusqu'au 18 à 21h UTC


172000Z 1721/1821 28010KT 9999 SCT025
BECMG 1801/1803 VRB02KT BKN010
TEMPO 1803/1809 3000 BR BKN003
PROB30
TEMPO 1803/1809 0600 FZFG
BECMG 1812/1814 NSC
Pas de NOTAMs connus pour ce terrain.



MET'MAP, la Météo Aéronautique d'un coup d'oeil ! - Copyright ORBIFLY Décembre 2007 - Disclaimer

ORBIFLY MET'MAP TEAM :

Programmation & Développement : Alexandra Zaïnal
Conception & Développement : Baudouin d'Aumeries
Co-Programmation & Développement : Marc-Olivier Méhu
Soutien technique & logistique : Manuel Goepfert

Contact : metmap@orbifly.com




SOURCES & CREDITS :

   NOAA